MSC Mara — V7NF9 — position and weather

sailwx.info

Track history (hours):
 
Tides and Currents Weather Stations Pressure Air Temp Water Temp Dewpoint Dewpoint Depression Visibility Wind Speed Wind Dir Waves Ship Positions

MSC Mara

Last reported at 2015-Mar-28 18:30 UTC. Time now 2015-Mar-28 18:52 UTC.
Position N 43°25' E 004°50'.

Length 294 m; draft 9 m.

Type: Ship (hazmat cat C). MMSI: 538002955.

Date/timePositionNaut miles runAvg speedWind from/ knotsBaromVisibWave heightAir tempDewpointWater temp
2015-Mar-28 18:30N 43°25' E 004°50'0 0.0
2015-Mar-28 17:33N 43°25' E 004°50'0 0.0
2015-Mar-28 16:33N 43°25' E 004°50'0 0.0
2015-Mar-28 15:33N 43°25' E 004°50'0 0.0
2015-Mar-28 14:30N 43°25' E 004°50'0 0.0
2015-Mar-28 13:33N 43°25' E 004°50'4 4.4
2015-Mar-28 12:33N 43°24' E 004°56'1010.3
2015-Mar-28 11:33N 43°14' E 005°02'8 7.9
2015-Mar-28 10:33N 43°06' E 005°03'2 2.0
2015-Mar-28 09:33N 43°05' E 005°01'3 2.7
2015-Mar-28 08:33N 43°07' E 005°01'6 5.8
2015-Mar-28 07:33N 43°03' E 004°55'2712.9
2015-Mar-28 05:29N 42°42' E 004°33'1112.2
2015-Mar-28 04:34N 42°32' E 004°25'1312.6
2015-Mar-28 03:33N 42°22' E 004°15'1312.9
2015-Mar-28 02:33N 42°11' E 004°05'1212.3
2015-Mar-28 01:33N 42°01' E 003°56'1212.4
2015-Mar-28 00:33N 41°52' E 003°46'1212.3
2015-Mar-27 23:33N 41°43' E 003°34'1111.3
2015-Mar-27 22:33N 41°35' E 003°23'1211.5
2015-Mar-27 21:33N 41°28' E 003°11'1212.1
2015-Mar-27 20:33N 41°19' E 002°60'1212.3
2015-Mar-27 19:33N 41°11' E 002°48'1312.6
2015-Mar-27 18:33N 41°02' E 002°36'1312.8
2015-Mar-27 17:33N 40°53' E 002°23'1313.5
2015-Mar-27 16:33N 40°44' E 002°11'1313.2
2015-Mar-27 15:33N 40°35' E 001°58'1212.4
2015-Mar-27 14:33N 40°26' E 001°46'1212.2
2015-Mar-27 13:33N 40°18' E 001°34'1212.0
2015-Mar-27 12:33N 40°10' E 001°23'1211.9
2015-Mar-27 11:33N 40°01' E 001°12'1212.1
2015-Mar-27 10:32N 39°53' E 000°60'1211.9
2015-Mar-27 09:33N 39°45' E 000°48'5012.5
2015-Mar-27 05:32N 39°26' W 000°11'6 4.9
2015-Mar-27 04:16N 39°26' W 000°19'0 0.0
2015-Mar-27 03:22N 39°26' W 000°19'0 0.0
2015-Mar-27 02:31N 39°26' W 000°19'0 0.0
2015-Mar-27 01:28N 39°26' W 000°19'0 0.0
2015-Mar-27 00:28N 39°26' W 000°19'0 0.0
2015-Mar-26 23:31N 39°26' W 000°19'0 0.0
2015-Mar-26 22:22N 39°26' W 000°19'0 0.0
2015-Mar-26 21:22N 39°26' W 000°19'0 0.0
2015-Mar-26 20:28N 39°26' W 000°19'0 0.0
2015-Mar-26 19:22N 39°26' W 000°19'0 0.0
2015-Mar-26 18:31N 39°26' W 000°19'0 0.0
2015-Mar-26 17:31N 39°26' W 000°19'0 0.0
2015-Mar-26 16:31N 39°26' W 000°19'0 0.0
2015-Mar-26 15:28N 39°26' W 000°19'0 0.0
2015-Mar-26 14:28N 39°26' W 000°19'0 0.0
2015-Mar-26 13:28N 39°26' W 000°19'0 0.0
2015-Mar-26 12:31N 39°26' W 000°19'0 0.0
2015-Mar-26 11:31N 39°26' W 000°19'0 0.0
2015-Mar-26 10:31N 39°26' W 000°19'0 0.0
2015-Mar-26 09:22N 39°26' W 000°19'0 0.0
2015-Mar-26 08:34N 39°26' W 000°19'0 0.0
2015-Mar-26 07:27N 39°26' W 000°19'0 0.0
2015-Mar-26 06:33N 39°26' W 000°19'0 0.0
2015-Mar-26 05:33N 39°26' W 000°19'0 0.0
2015-Mar-26 04:27N 39°26' W 000°19'4 4.0
2015-Mar-26 03:33N 39°25' W 000°15'8 5.6
2015-Mar-26 02:05N 39°24' W 000°04'5411.8
2015-Mar-25 21:33N 39°21' E 001°05'1211.6
2015-Mar-25 20:33N 39°20' E 001°20'1211.6
2015-Mar-25 19:33N 39°20' E 001°35'1211.6
2015-Mar-25 18:33N 39°19' E 001°50'1212.1
2015-Mar-25 17:34N 39°15' E 002°05'1212.1
2015-Mar-25 16:33N 39°11' E 002°19'1212.0
2015-Mar-25 15:33N 39°07' E 002°34'1313.4
2015-Mar-25 14:33N 39°03' E 002°50'1918.5
2015-Mar-25 13:33N 39°05' E 003°14'1717.2
2015-Mar-25 12:33N 39°04' E 003°36'48917.2
2015-Mar-24 08:04N 36°46' E 013°31'1217.2
2015-Mar-24 07:22N 36°42' E 013°46'1417.3
2015-Mar-24 06:33N 36°37' E 014°02'1818.1
2015-Mar-24 05:33N 36°32' E 014°24'44816.0
2015-Mar-23 01:32N 37°31' E 023°41'1111.0
2015-Mar-23 00:33N 37°42' E 023°41'1414.4
2015-Mar-22 23:33N 37°56' E 023°37'2 1.5
2015-Mar-22 22:27N 37°57' E 023°36'0 0.0
2015-Mar-22 21:27N 37°57' E 023°36'0 0.0
2015-Mar-22 20:30N 37°57' E 023°36'0 0.0
2015-Mar-22 19:33N 37°57' E 023°36'0 0.0
2015-Mar-22 18:32N 37°57' E 023°36'0 0.0
2015-Mar-22 17:32N 37°57' E 023°36'0 0.0
2015-Mar-22 16:32N 37°57' E 023°36'0 0.0
2015-Mar-22 15:29N 37°57' E 023°36'0 0.0
2015-Mar-22 14:32N 37°57' E 023°36'0 0.0
2015-Mar-22 13:32N 37°57' E 023°36'0 0.0
2015-Mar-22 12:32N 37°57' E 023°36'0 0.0
2015-Mar-22 11:29N 37°57' E 023°36'0 0.0
2015-Mar-22 10:32N 37°57' E 023°36'0 0.0
2015-Mar-22 09:32N 37°57' E 023°36'0 0.0
2015-Mar-22 08:26N 37°57' E 023°36'0 0.0
2015-Mar-22 07:32N 37°57' E 023°36'0 0.0
2015-Mar-22 06:23N 37°57' E 023°36'0 0.3
2015-Mar-22 05:32N 37°57' E 023°36'3 3.3
2015-Mar-22 04:33N 37°54' E 023°35'4 3.9
2015-Mar-22 03:33N 37°52' E 023°39'1414.1
2015-Mar-22 02:33N 37°39' E 023°47'8816.6
2015-Mar-21 21:15N 36°22' E 024°41'1217.1
2015-Mar-21 20:33N 36°16' E 024°54'1717.2
2015-Mar-21 19:33N 36°06' E 025°11'2017.5
2015-Mar-21 18:23N 35°56' E 025°33'1517.2
2015-Mar-21 17:32N 35°48' E 025°48'  
Track history (hours):
 
Tides and Currents Weather Stations Pressure Air Temp Water Temp Dewpoint Dewpoint Depression Visibility Wind Speed Wind Dir Waves Ship Positions

MSC Mara

Last reported at 2015-Mar-28 18:30 UTC. Time now 2015-Mar-28 18:52 UTC.
Position N 43°25' E 004°50'.

Length 294 m; draft 9 m.

Type: Ship (hazmat cat C). MMSI: 538002955.

Date/timePositionNaut miles runAvg speedWind from/ knotsBaromVisibWave heightAir tempDewpointWater temp
2015-Mar-28 18:30N 43°25' E 004°50'0 0.0
2015-Mar-28 17:33N 43°25' E 004°50'0 0.0
2015-Mar-28 16:33N 43°25' E 004°50'0 0.0
2015-Mar-28 15:33N 43°25' E 004°50'0 0.0
2015-Mar-28 14:30N 43°25' E 004°50'0 0.0
2015-Mar-28 13:33N 43°25' E 004°50'4 4.4
2015-Mar-28 12:33N 43°24' E 004°56'1010.3
2015-Mar-28 11:33N 43°14' E 005°02'8 7.9
2015-Mar-28 10:33N 43°06' E 005°03'2 2.0
2015-Mar-28 09:33N 43°05' E 005°01'3 2.7
2015-Mar-28 08:33N 43°07' E 005°01'6 5.8
2015-Mar-28 07:33N 43°03' E 004°55'2712.9
2015-Mar-28 05:29N 42°42' E 004°33'1112.2
2015-Mar-28 04:34N 42°32' E 004°25'1312.6
2015-Mar-28 03:33N 42°22' E 004°15'1312.9
2015-Mar-28 02:33N 42°11' E 004°05'1212.3
2015-Mar-28 01:33N 42°01' E 003°56'1212.4
2015-Mar-28 00:33N 41°52' E 003°46'1212.3
2015-Mar-27 23:33N 41°43' E 003°34'1111.3
2015-Mar-27 22:33N 41°35' E 003°23'1211.5
2015-Mar-27 21:33N 41°28' E 003°11'1212.1
2015-Mar-27 20:33N 41°19' E 002°60'1212.3
2015-Mar-27 19:33N 41°11' E 002°48'1312.6
2015-Mar-27 18:33N 41°02' E 002°36'1312.8
2015-Mar-27 17:33N 40°53' E 002°23'1313.5
2015-Mar-27 16:33N 40°44' E 002°11'1313.2
2015-Mar-27 15:33N 40°35' E 001°58'1212.4
2015-Mar-27 14:33N 40°26' E 001°46'1212.2
2015-Mar-27 13:33N 40°18' E 001°34'1212.0
2015-Mar-27 12:33N 40°10' E 001°23'1211.9
2015-Mar-27 11:33N 40°01' E 001°12'1212.1
2015-Mar-27 10:32N 39°53' E 000°60'1211.9
2015-Mar-27 09:33N 39°45' E 000°48'5012.5
2015-Mar-27 05:32N 39°26' W 000°11'6 4.9
2015-Mar-27 04:16N 39°26' W 000°19'0 0.0
2015-Mar-27 03:22N 39°26' W 000°19'0 0.0
2015-Mar-27 02:31N 39°26' W 000°19'0 0.0
2015-Mar-27 01:28N 39°26' W 000°19'0 0.0
2015-Mar-27 00:28N 39°26' W 000°19'0 0.0
2015-Mar-26 23:31N 39°26' W 000°19'0 0.0
2015-Mar-26 22:22N 39°26' W 000°19'0 0.0
2015-Mar-26 21:22N 39°26' W 000°19'0 0.0
2015-Mar-26 20:28N 39°26' W 000°19'0 0.0
2015-Mar-26 19:22N 39°26' W 000°19'0 0.0
2015-Mar-26 18:31N 39°26' W 000°19'0 0.0
2015-Mar-26 17:31N 39°26' W 000°19'0 0.0
2015-Mar-26 16:31N 39°26' W 000°19'0 0.0
2015-Mar-26 15:28N 39°26' W 000°19'0 0.0
2015-Mar-26 14:28N 39°26' W 000°19'0 0.0
2015-Mar-26 13:28N 39°26' W 000°19'0 0.0
2015-Mar-26 12:31N 39°26' W 000°19'0 0.0
2015-Mar-26 11:31N 39°26' W 000°19'0 0.0
2015-Mar-26 10:31N 39°26' W 000°19'0 0.0
2015-Mar-26 09:22N 39°26' W 000°19'0 0.0
2015-Mar-26 08:34N 39°26' W 000°19'0 0.0
2015-Mar-26 07:27N 39°26' W 000°19'0 0.0
2015-Mar-26 06:33N 39°26' W 000°19'0 0.0
2015-Mar-26 05:33N 39°26' W 000°19'0 0.0
2015-Mar-26 04:27N 39°26' W 000°19'4 4.0
2015-Mar-26 03:33N 39°25' W 000°15'8 5.6
2015-Mar-26 02:05N 39°24' W 000°04'5411.8
2015-Mar-25 21:33N 39°21' E 001°05'1211.6
2015-Mar-25 20:33N 39°20' E 001°20'1211.6
2015-Mar-25 19:33N 39°20' E 001°35'1211.6
2015-Mar-25 18:33N 39°19' E 001°50'1212.1
2015-Mar-25 17:34N 39°15' E 002°05'1212.1
2015-Mar-25 16:33N 39°11' E 002°19'1212.0
2015-Mar-25 15:33N 39°07' E 002°34'1313.4
2015-Mar-25 14:33N 39°03' E 002°50'1918.5
2015-Mar-25 13:33N 39°05' E 003°14'1717.2
2015-Mar-25 12:33N 39°04' E 003°36'48917.2
2015-Mar-24 08:04N 36°46' E 013°31'1217.2
2015-Mar-24 07:22N 36°42' E 013°46'1417.3
2015-Mar-24 06:33N 36°37' E 014°02'1818.1
2015-Mar-24 05:33N 36°32' E 014°24'44816.0
2015-Mar-23 01:32N 37°31' E 023°41'1111.0
2015-Mar-23 00:33N 37°42' E 023°41'1414.4
2015-Mar-22 23:33N 37°56' E 023°37'2 1.5
2015-Mar-22 22:27N 37°57' E 023°36'0 0.0
2015-Mar-22 21:27N 37°57' E 023°36'0 0.0
2015-Mar-22 20:30N 37°57' E 023°36'0 0.0
2015-Mar-22 19:33N 37°57' E 023°36'0 0.0
2015-Mar-22 18:32N 37°57' E 023°36'0 0.0
2015-Mar-22 17:32N 37°57' E 023°36'0 0.0
2015-Mar-22 16:32N 37°57' E 023°36'0 0.0
2015-Mar-22 15:29N 37°57' E 023°36'0 0.0
2015-Mar-22 14:32N 37°57' E 023°36'0 0.0
2015-Mar-22 13:32N 37°57' E 023°36'0 0.0
2015-Mar-22 12:32N 37°57' E 023°36'0 0.0
2015-Mar-22 11:29N 37°57' E 023°36'0 0.0
2015-Mar-22 10:32N 37°57' E 023°36'0 0.0
2015-Mar-22 09:32N 37°57' E 023°36'0 0.0
2015-Mar-22 08:26N 37°57' E 023°36'0 0.0
2015-Mar-22 07:32N 37°57' E 023°36'0 0.0
2015-Mar-22 06:23N 37°57' E 023°36'0 0.3
2015-Mar-22 05:32N 37°57' E 023°36'3 3.3
2015-Mar-22 04:33N 37°54' E 023°35'4 3.9
2015-Mar-22 03:33N 37°52' E 023°39'1414.1
2015-Mar-22 02:33N 37°39' E 023°47'8816.6
2015-Mar-21 21:15N 36°22' E 024°41'1217.1
2015-Mar-21 20:33N 36°16' E 024°54'1717.2
2015-Mar-21 19:33N 36°06' E 025°11'2017.5
2015-Mar-21 18:23N 35°56' E 025°33'1517.2
2015-Mar-21 17:32N 35°48' E 025°48'  

Dump ship's entire track history